createdAt,value
2019-02-14T00:00:50.910Z,59.24
2019-02-14T00:15:51.246Z,59.38
2019-02-14T00:30:52.183Z,59.59
2019-02-14T00:45:51.029Z,60.48
2019-02-14T01:00:53.089Z,61.29
2019-02-14T01:30:53.881Z,62.91
2019-02-14T01:45:51.252Z,64.22
2019-02-14T02:00:51.152Z,65.20
2019-02-14T02:15:51.553Z,64.94
2019-02-14T02:30:53.511Z,65.41
2019-02-14T02:45:52.560Z,65.36
2019-02-14T03:00:50.845Z,66.21
2019-02-14T03:15:51.405Z,66.43
2019-02-14T03:30:53.223Z,66.24
2019-02-14T03:45:53.184Z,66.19
2019-02-14T04:00:51.065Z,66.06
2019-02-14T04:15:51.004Z,65.38
2019-02-14T04:30:53.456Z,65.01
2019-02-14T04:45:51.312Z,64.50
2019-02-14T05:00:51.117Z,64.27
2019-02-14T05:15:51.144Z,64.02
2019-02-14T05:30:50.449Z,62.22
2019-02-14T05:45:53.344Z,61.70
2019-02-14T06:00:51.328Z,59.24
2019-02-14T06:15:51.287Z,53.22
2019-02-14T06:30:50.657Z,48.32
2019-02-14T06:45:50.553Z,45.16
2019-02-14T07:00:50.481Z,44.13
2019-02-14T07:15:50.416Z,44.25
2019-02-14T07:30:50.708Z,43.51
2019-02-14T07:45:50.684Z,42.21
2019-02-14T08:00:50.556Z,40.11
2019-02-14T08:15:50.588Z,38.84
2019-02-14T08:30:50.860Z,37.53
2019-02-14T08:45:52.790Z,36.46
2019-02-14T09:00:50.898Z,35.45
2019-02-14T09:15:51.219Z,33.65
2019-02-14T09:30:51.044Z,34.15
2019-02-14T09:45:51.017Z,33.80
2019-02-14T10:15:51.087Z,33.61
2019-02-14T10:30:51.040Z,32.98
2019-02-14T10:45:53.507Z,32.37
2019-02-14T11:00:57.512Z,33.46
2019-02-14T11:15:51.333Z,34.64
2019-02-14T11:30:50.706Z,35.03
2019-02-14T11:45:51.183Z,37.10
2019-02-14T12:00:50.654Z,39.94
2019-02-14T12:15:51.084Z,40.73
2019-02-14T12:30:50.992Z,41.45
2019-02-14T12:45:51.484Z,42.60
2019-02-14T13:00:50.566Z,44.47
2019-02-14T13:15:51.495Z,47.24
2019-02-14T13:30:51.414Z,48.45
2019-02-14T13:45:51.494Z,50.54
2019-02-14T14:00:51.379Z,52.47
2019-02-14T14:15:51.300Z,54.21
2019-02-14T14:30:51.298Z,55.67
2019-02-14T14:45:56.392Z,56.34
2019-02-14T15:00:51.263Z,57.82
2019-02-14T15:15:51.088Z,59.04
2019-02-14T15:30:51.119Z,59.92
2019-02-14T15:45:51.004Z,60.16
2019-02-14T16:00:51.808Z,61.21
2019-02-14T16:15:53.841Z,61.94
2019-02-14T16:30:52.844Z,63.14
2019-02-14T16:45:50.885Z,63.45
2019-02-14T17:00:51.171Z,64.15
2019-02-14T17:15:51.120Z,64.34
2019-02-14T17:30:54.002Z,63.87
2019-02-14T17:45:52.088Z,64.28
2019-02-14T18:00:51.571Z,64.35
2019-02-14T18:15:51.344Z,64.94
2019-02-14T18:30:51.429Z,65.48
2019-02-14T18:45:53.145Z,65.28
2019-02-14T19:00:51.233Z,73.03
2019-02-14T19:15:53.552Z,64.62
2019-02-14T19:30:56.958Z,65.07
2019-02-14T19:45:50.916Z,65.55
2019-02-14T20:00:50.964Z,65.30
2019-02-14T20:15:50.933Z,65.63
2019-02-14T20:30:52.061Z,65.66
2019-02-14T20:45:52.302Z,65.21
2019-02-14T21:00:51.336Z,65.60
2019-02-14T21:15:51.836Z,66.22
2019-02-14T21:30:52.353Z,66.85
2019-02-14T21:45:56.196Z,66.85
2019-02-14T22:00:51.187Z,66.85
2019-02-14T22:15:51.087Z,66.76
2019-02-14T22:30:51.860Z,65.99
2019-02-14T22:45:51.013Z,66.12
2019-02-14T23:00:56.192Z,65.68
2019-02-14T23:15:51.423Z,65.85
2019-02-14T23:30:53.417Z,65.36
2019-02-14T23:45:52.303Z,64.61
